createdAt,value
2022-09-22T00:00:33.973Z,23.30
2022-09-22T00:03:04.285Z,23.30
2022-09-22T00:05:34.494Z,23.20
2022-09-22T00:08:04.951Z,23.20
2022-09-22T00:10:35.141Z,23.20
2022-09-22T00:13:06.330Z,23.20
2022-09-22T00:15:36.940Z,23.20
2022-09-22T00:18:07.393Z,23.10
2022-09-22T00:20:40.765Z,23.10
2022-09-22T00:23:11.114Z,23.20
2022-09-22T00:25:44.778Z,23.10
2022-09-22T00:28:15.195Z,23.10
2022-09-22T00:30:45.820Z,23.20
2022-09-22T00:33:16.243Z,23.20
2022-09-22T00:35:46.500Z,23.20
2022-09-22T00:38:16.846Z,23.20
2022-09-22T00:40:47.223Z,23.30
2022-09-22T00:43:24.499Z,23.40
2022-09-22T00:46:02.622Z,23.40
2022-09-22T00:48:37.415Z,23.40
2022-09-22T00:51:12.120Z,23.40
2022-09-22T00:53:42.753Z,23.40
2022-09-22T00:56:20.486Z,23.40
2022-09-22T00:58:56.319Z,23.40
2022-09-22T01:01:26.694Z,23.50
2022-09-22T01:03:59.016Z,23.50
2022-09-22T01:06:31.327Z,23.50
2022-09-22T01:09:03.900Z,23.60
2022-09-22T01:11:34.978Z,23.70
2022-09-22T01:14:27.866Z,23.80
2022-09-22T01:17:25.798Z,24.00
2022-09-22T01:20:25.811Z,24.20
2022-09-22T01:23:17.201Z,24.30
2022-09-22T01:26:16.756Z,24.50
2022-09-22T01:29:18.356Z,24.70
2022-09-22T01:32:08.122Z,24.80
2022-09-22T01:35:02.961Z,24.90
2022-09-22T01:37:49.271Z,25.00
2022-09-22T01:40:33.855Z,25.10
2022-09-22T01:43:30.956Z,25.10
2022-09-22T01:46:05.805Z,25.20
2022-09-22T01:48:38.232Z,25.20
2022-09-22T01:51:31.358Z,25.30
2022-09-22T01:54:06.816Z,25.40
2022-09-22T01:56:39.311Z,25.50
2022-09-22T01:59:12.044Z,25.60
2022-09-22T02:01:50.477Z,25.50
2022-09-22T02:04:32.320Z,25.60
2022-09-22T02:07:08.444Z,25.70
2022-09-22T02:09:41.226Z,25.80
2022-09-22T02:12:11.656Z,25.90
2022-09-22T02:14:42.074Z,25.90
2022-09-22T02:17:12.539Z,25.90
2022-09-22T02:19:44.632Z,26.00
2022-09-22T02:22:15.350Z,26.10
2022-09-22T02:24:47.738Z,26.10
2022-09-22T02:27:29.110Z,26.10
2022-09-22T02:30:10.205Z,26.10
2022-09-22T02:32:43.353Z,26.20
2022-09-22T02:35:13.769Z,26.20
2022-09-22T02:38:04.917Z,26.20
2022-09-22T02:41:01.245Z,26.20
2022-09-22T02:43:52.176Z,26.20
2022-09-22T02:46:42.802Z,26.30
2022-09-22T02:49:17.265Z,26.30
2022-09-22T02:51:50.795Z,26.60
2022-09-22T02:54:21.059Z,26.60
2022-09-22T02:56:51.639Z,26.80
2022-09-22T02:59:21.883Z,27.10
2022-09-22T03:01:52.559Z,27.20
2022-09-22T03:04:23.048Z,27.10
2022-09-22T03:06:53.518Z,27.20
2022-09-22T03:09:23.862Z,27.40
2022-09-22T03:11:54.195Z,27.40
2022-09-22T03:14:24.588Z,27.40
2022-09-22T03:16:56.262Z,27.50
2022-09-22T03:19:26.709Z,27.60
2022-09-22T03:21:56.995Z,27.80
2022-09-22T03:24:27.333Z,27.90
2022-09-22T03:26:57.630Z,28.00
2022-09-22T03:29:28.011Z,28.00
2022-09-22T03:31:58.290Z,28.10
2022-09-22T03:34:28.559Z,28.30
2022-09-22T03:36:58.379Z,28.40
2022-09-22T03:39:27.557Z,28.50
2022-09-22T03:41:57.304Z,28.60
2022-09-22T03:44:28.209Z,28.50
2022-09-22T03:46:57.934Z,28.40
2022-09-22T03:49:28.060Z,28.50
2022-09-22T03:51:58.116Z,28.50
2022-09-22T03:54:27.998Z,28.60
2022-09-22T03:56:57.853Z,28.70
2022-09-22T03:59:28.041Z,28.80
2022-09-22T04:01:58.494Z,28.70
2022-09-22T04:04:28.379Z,28.60
2022-09-22T04:06:58.219Z,28.40
2022-09-22T04:09:28.120Z,28.30
2022-09-22T04:11:58.448Z,28.30
2022-09-22T04:14:28.396Z,28.20
2022-09-22T04:16:58.461Z,28.30
2022-09-22T04:19:28.468Z,28.30
2022-09-22T04:21:58.629Z,28.30
2022-09-22T04:24:28.772Z,28.40
2022-09-22T04:29:49.418Z,28.60
2022-09-22T04:32:20.403Z,28.80
2022-09-22T04:34:50.577Z,28.80
2022-09-22T04:37:20.468Z,28.90
2022-09-22T04:39:50.736Z,29.00
2022-09-22T04:42:21.463Z,29.10
2022-09-22T04:44:51.367Z,29.20
2022-09-22T04:47:22.203Z,29.30
2022-09-22T04:49:52.027Z,29.40
2022-09-22T04:52:21.992Z,29.40
2022-09-22T04:54:51.781Z,29.50
2022-09-22T04:57:22.023Z,29.40
2022-09-22T04:59:53.803Z,29.40
2022-09-22T05:02:23.768Z,29.40
2022-09-22T05:04:53.612Z,29.40
2022-09-22T05:07:23.302Z,29.40
2022-09-22T05:09:53.121Z,29.40
2022-09-22T05:12:22.959Z,29.40
2022-09-22T05:14:52.788Z,29.40
2022-09-22T05:17:23.400Z,29.50
2022-09-22T05:19:57.402Z,29.40
2022-09-22T05:22:27.426Z,29.50
2022-09-22T05:24:57.725Z,29.60
2022-09-22T05:27:28.248Z,29.60
2022-09-22T05:29:58.218Z,29.80
2022-09-22T05:32:28.034Z,29.90
2022-09-22T05:34:57.950Z,30.00
2022-09-22T05:37:27.724Z,30.00
2022-09-22T05:39:57.601Z,30.00
2022-09-22T05:42:27.460Z,30.00
2022-09-22T05:44:57.306Z,29.90
2022-09-22T05:47:27.105Z,30.00
2022-09-22T05:49:57.142Z,30.20
2022-09-22T05:52:26.901Z,30.30
2022-09-22T05:54:56.785Z,30.40
2022-09-22T05:57:29.289Z,30.60
2022-09-22T05:59:59.111Z,30.70
2022-09-22T06:02:29.151Z,30.80
2022-09-22T06:05:00.156Z,30.80
2022-09-22T06:07:30.256Z,30.70
2022-09-22T06:10:00.129Z,30.50
2022-09-22T06:12:30.934Z,30.60
2022-09-22T06:15:00.740Z,30.60
2022-09-22T06:17:30.454Z,30.70
2022-09-22T06:20:02.541Z,30.80
2022-09-22T06:22:32.346Z,30.90
2022-09-22T06:25:02.200Z,30.80
2022-09-22T06:27:32.063Z,31.00
2022-09-22T06:30:01.849Z,31.00
2022-09-22T06:32:32.790Z,31.10
2022-09-22T06:35:04.473Z,31.10
2022-09-22T06:37:34.369Z,31.40
2022-09-22T06:40:04.532Z,31.40
2022-09-22T06:42:34.366Z,31.60
2022-09-22T06:45:06.140Z,31.60
2022-09-22T06:47:35.976Z,31.70
2022-09-22T06:50:07.291Z,31.80
2022-09-22T06:52:40.202Z,31.90
2022-09-22T06:55:13.027Z,32.00
2022-09-22T06:57:43.001Z,31.90
2022-09-22T07:00:13.521Z,31.80
2022-09-22T07:02:43.314Z,31.40
2022-09-22T07:05:13.574Z,31.30
2022-09-22T07:07:43.295Z,31.10
2022-09-22T07:10:13.192Z,31.00
2022-09-22T07:12:43.057Z,31.00
2022-09-22T07:15:14.018Z,31.00
2022-09-22T07:17:43.980Z,31.00
2022-09-22T07:20:14.442Z,31.00
2022-09-22T07:22:44.168Z,31.00
2022-09-22T07:25:16.001Z,31.00
2022-09-22T07:27:46.256Z,31.10
2022-09-22T07:30:16.594Z,31.30
2022-09-22T07:32:46.395Z,31.30
2022-09-22T07:35:16.367Z,31.20
2022-09-22T07:37:48.077Z,31.00
2022-09-22T07:40:18.013Z,31.00
2022-09-22T07:42:51.873Z,30.90
2022-09-22T07:45:24.531Z,31.10
2022-09-22T07:48:10.591Z,31.10
2022-09-22T07:50:40.430Z,31.10
2022-09-22T07:53:10.304Z,31.10
2022-09-22T07:55:40.277Z,31.00
2022-09-22T07:58:17.283Z,31.10
2022-09-22T08:00:47.736Z,31.10
2022-09-22T08:03:17.717Z,31.10
2022-09-22T08:05:48.751Z,31.10
2022-09-22T08:08:18.422Z,31.00
2022-09-22T08:10:48.280Z,31.00
2022-09-22T08:13:18.421Z,31.00
2022-09-22T08:15:49.273Z,31.10
2022-09-22T08:18:21.008Z,31.20
2022-09-22T08:20:51.768Z,31.20
2022-09-22T08:23:23.261Z,31.10
2022-09-22T08:25:53.677Z,31.00
2022-09-22T08:28:24.253Z,30.90
2022-09-22T08:30:54.665Z,30.80
2022-09-22T08:33:26.445Z,30.80
2022-09-22T08:36:01.421Z,30.70
2022-09-22T08:38:33.193Z,30.70
2022-09-22T08:41:39.961Z,30.60
2022-09-22T08:44:25.087Z,30.70
2022-09-22T08:47:01.521Z,30.60
2022-09-22T08:50:04.794Z,30.40
2022-09-22T08:52:50.462Z,30.30
2022-09-22T08:55:25.568Z,30.20
2022-09-22T08:58:23.768Z,30.00
2022-09-22T09:01:06.707Z,29.90
2022-09-22T09:03:59.915Z,29.90
2022-09-22T09:07:00.190Z,29.80
2022-09-22T09:10:07.030Z,29.90
2022-09-22T09:13:17.157Z,29.80
2022-09-22T09:16:13.228Z,29.80
2022-09-22T09:18:53.673Z,29.90
2022-09-22T09:21:25.918Z,29.90
2022-09-22T09:26:53.064Z,29.90
2022-09-22T09:29:29.513Z,30.00
2022-09-22T09:32:01.820Z,30.10
2022-09-22T09:34:32.723Z,30.10
2022-09-22T09:37:16.345Z,30.20
2022-09-22T09:39:48.523Z,30.10
2022-09-22T09:42:31.291Z,30.00
2022-09-22T09:45:04.937Z,30.00
2022-09-22T09:48:14.108Z,29.90
2022-09-22T09:50:44.422Z,29.90
2022-09-22T09:53:41.046Z,29.90
2022-09-22T09:56:31.242Z,30.00
2022-09-22T09:59:19.244Z,30.00
2022-09-22T10:01:53.307Z,30.10
2022-09-22T10:04:40.912Z,30.10
2022-09-22T10:07:18.909Z,30.20
2022-09-22T10:09:52.428Z,30.20
2022-09-22T10:12:38.081Z,30.40
2022-09-22T10:15:26.929Z,30.50
2022-09-22T10:17:57.429Z,30.60
2022-09-22T10:20:36.045Z,30.60
2022-09-22T10:23:24.499Z,30.50
2022-09-22T10:25:55.860Z,30.50
2022-09-22T10:28:28.493Z,30.60
2022-09-22T10:31:05.443Z,30.40
2022-09-22T10:33:43.077Z,30.30
2022-09-22T10:36:14.816Z,30.30
2022-09-22T10:38:47.190Z,30.20
2022-09-22T10:41:28.759Z,30.20
2022-09-22T10:44:37.863Z,30.20
2022-09-22T10:47:28.308Z,30.10
2022-09-22T10:50:33.972Z,29.50
2022-09-22T10:53:33.939Z,29.30
2022-09-22T10:56:25.993Z,29.20
2022-09-22T10:59:13.679Z,29.10
2022-09-22T11:02:23.082Z,29.00
2022-09-22T11:05:43.198Z,28.80
2022-09-22T11:08:33.592Z,28.60
2022-09-22T11:11:43.548Z,28.50
2022-09-22T11:14:44.205Z,28.20
2022-09-22T11:17:45.543Z,27.90
2022-09-22T11:20:34.520Z,28.00
2022-09-22T11:23:24.918Z,28.00
2022-09-22T11:26:14.562Z,27.70
2022-09-22T11:28:57.270Z,27.60
2022-09-22T11:31:56.670Z,27.60
2022-09-22T11:34:55.896Z,27.60
2022-09-22T11:37:48.546Z,27.50
2022-09-22T11:40:46.152Z,27.40
2022-09-22T11:43:38.666Z,27.20
2022-09-22T11:46:45.517Z,27.00
2022-09-22T11:49:46.849Z,26.90
2022-09-22T11:52:36.912Z,26.90
2022-09-22T11:55:39.942Z,26.90
2022-09-22T11:58:19.340Z,26.90
2022-09-22T12:01:13.153Z,26.80
2022-09-22T12:03:56.964Z,26.80
2022-09-22T12:06:34.677Z,26.70
2022-09-22T12:09:13.745Z,26.60
2022-09-22T12:11:45.209Z,26.60
2022-09-22T12:14:17.788Z,26.60
2022-09-22T12:17:08.068Z,26.40
2022-09-22T12:20:00.659Z,26.20
2022-09-22T12:22:48.529Z,26.20
2022-09-22T12:25:47.981Z,26.20
2022-09-22T12:28:23.392Z,26.20
2022-09-22T12:31:14.819Z,26.10
2022-09-22T12:33:55.019Z,26.10
2022-09-22T12:36:41.716Z,26.10
2022-09-22T12:39:20.357Z,26.10
2022-09-22T12:42:02.634Z,26.10
2022-09-22T12:44:57.073Z,26.00
2022-09-22T12:47:40.622Z,26.00
2022-09-22T12:50:36.287Z,26.10
2022-09-22T12:53:20.444Z,26.10
2022-09-22T12:55:52.869Z,26.10
2022-09-22T12:58:43.065Z,26.10
2022-09-22T13:01:35.095Z,26.20
2022-09-22T13:04:16.566Z,26.20
2022-09-22T13:07:01.369Z,26.30
2022-09-22T13:09:32.645Z,26.20
2022-09-22T13:12:25.528Z,26.10
2022-09-22T13:15:16.969Z,26.00
2022-09-22T13:17:50.203Z,26.00
2022-09-22T13:20:34.791Z,26.00
2022-09-22T13:23:14.039Z,26.00
2022-09-22T13:25:45.463Z,25.80
2022-09-22T13:28:23.322Z,25.80
2022-09-22T13:31:06.408Z,25.70
2022-09-22T13:33:38.909Z,25.80
2022-09-22T13:36:15.941Z,25.70
2022-09-22T13:38:53.504Z,25.80
2022-09-22T13:41:27.990Z,25.90
2022-09-22T13:44:03.698Z,25.90
2022-09-22T13:46:44.883Z,25.90
2022-09-22T13:49:34.271Z,25.80
2022-09-22T13:52:09.542Z,25.80
2022-09-22T13:54:41.387Z,25.80
2022-09-22T13:57:26.761Z,25.80
2022-09-22T13:59:59.821Z,25.80
2022-09-22T14:02:32.255Z,24.30
2022-09-22T14:05:08.048Z,25.70
2022-09-22T14:08:00.959Z,25.70
2022-09-22T14:10:37.191Z,25.70
2022-09-22T14:13:07.438Z,25.70
2022-09-22T14:15:46.129Z,25.70
2022-09-22T14:18:23.175Z,25.70
2022-09-22T14:20:55.053Z,25.70
2022-09-22T14:23:34.878Z,25.60
2022-09-22T14:26:06.579Z,25.60
2022-09-22T14:28:38.906Z,25.50
2022-09-22T14:31:20.138Z,25.50
2022-09-22T14:33:51.896Z,25.50
2022-09-22T14:36:27.054Z,25.50
2022-09-22T14:39:09.583Z,25.50
2022-09-22T14:41:43.386Z,25.50
2022-09-22T14:44:47.671Z,25.30
2022-09-22T14:47:27.992Z,25.30
2022-09-22T14:50:11.420Z,25.30
2022-09-22T14:52:55.538Z,25.30
2022-09-22T14:55:47.957Z,25.30
2022-09-22T14:58:26.330Z,25.20
2022-09-22T15:01:17.541Z,25.20
2022-09-22T15:04:03.370Z,25.20
2022-09-22T15:06:39.085Z,25.20
2022-09-22T15:09:25.579Z,25.30
2022-09-22T15:11:58.917Z,25.30
2022-09-22T15:14:46.703Z,25.20
2022-09-22T15:17:48.412Z,25.20
2022-09-22T15:20:21.095Z,25.20
2022-09-22T15:22:52.306Z,25.20
2022-09-22T15:25:24.104Z,25.20
2022-09-22T15:27:55.558Z,25.20
2022-09-22T15:30:27.541Z,25.30
2022-09-22T15:32:58.213Z,25.30
2022-09-22T15:35:29.733Z,25.30
2022-09-22T15:38:00.469Z,25.30
2022-09-22T15:40:31.011Z,25.30
2022-09-22T15:43:13.465Z,25.30
2022-09-22T15:45:51.649Z,25.30
2022-09-22T15:48:28.461Z,25.20
2022-09-22T15:51:02.549Z,25.20
2022-09-22T15:53:33.585Z,25.20
2022-09-22T15:56:08.702Z,25.10
2022-09-22T15:58:43.148Z,25.10
2022-09-22T16:01:13.681Z,25.00
2022-09-22T16:03:45.570Z,25.10
2022-09-22T16:06:19.317Z,25.10
2022-09-22T16:08:53.561Z,25.10
2022-09-22T16:11:31.635Z,25.10
2022-09-22T16:14:05.462Z,25.10
2022-09-22T16:16:38.464Z,25.10
2022-09-22T16:19:12.013Z,25.10
2022-09-22T16:21:52.937Z,25.10
2022-09-22T16:24:24.528Z,25.10
2022-09-22T16:26:57.480Z,25.10
2022-09-22T16:29:27.863Z,25.10
2022-09-22T16:32:03.263Z,25.10
2022-09-22T16:34:33.623Z,25.00
2022-09-22T16:37:05.468Z,25.10
2022-09-22T16:39:36.791Z,25.10
2022-09-22T16:42:07.576Z,25.10
2022-09-22T16:44:38.172Z,25.00
2022-09-22T16:47:09.951Z,25.00
2022-09-22T16:49:47.414Z,24.90
2022-09-22T16:52:18.909Z,24.90
2022-09-22T16:54:50.053Z,24.90
2022-09-22T16:57:20.997Z,24.90
2022-09-22T16:59:52.358Z,24.90
2022-09-22T17:02:24.084Z,24.90
2022-09-22T17:04:56.759Z,24.90
2022-09-22T17:07:28.080Z,24.90
2022-09-22T17:09:59.262Z,24.90
2022-09-22T17:12:32.309Z,24.90
2022-09-22T17:15:02.494Z,24.90
2022-09-22T17:17:35.137Z,24.80
2022-09-22T17:20:06.483Z,24.80
2022-09-22T17:22:37.305Z,24.80
2022-09-22T17:25:08.002Z,24.90
2022-09-22T17:27:39.273Z,24.90
2022-09-22T17:30:10.860Z,24.90
2022-09-22T17:32:41.650Z,24.90
2022-09-22T17:35:13.740Z,24.90
2022-09-22T17:37:45.770Z,24.90
2022-09-22T17:40:16.516Z,24.90
2022-09-22T17:42:47.328Z,24.80
2022-09-22T17:45:18.073Z,24.90
2022-09-22T17:48:07.625Z,24.90
2022-09-22T17:50:47.640Z,24.80
2022-09-22T17:53:28.211Z,24.90
2022-09-22T17:55:58.849Z,24.90
2022-09-22T17:58:29.367Z,24.90
2022-09-22T18:00:59.603Z,24.90
2022-09-22T18:03:29.974Z,24.90
2022-09-22T18:06:00.404Z,24.90
2022-09-22T18:08:30.747Z,24.90
2022-09-22T18:11:03.190Z,24.90
2022-09-22T18:13:37.304Z,24.90
2022-09-22T18:16:21.931Z,24.90
2022-09-22T18:18:52.428Z,24.90
2022-09-22T18:21:22.742Z,24.90
2022-09-22T18:23:54.212Z,24.90
2022-09-22T18:26:24.373Z,24.80
2022-09-22T18:28:56.042Z,24.80
2022-09-22T18:31:29.242Z,24.70
2022-09-22T18:34:00.342Z,24.60
2022-09-22T18:36:30.559Z,24.50
2022-09-22T18:39:00.760Z,24.50
2022-09-22T18:41:31.596Z,24.60
2022-09-22T18:44:02.823Z,24.60
2022-09-22T18:46:53.181Z,24.60
2022-09-22T18:49:23.833Z,24.60
2022-09-22T18:51:55.333Z,24.60
2022-09-22T18:54:25.548Z,24.70
2022-09-22T18:56:56.410Z,24.70
2022-09-22T18:59:29.102Z,24.70
2022-09-22T19:01:59.633Z,24.70
2022-09-22T19:04:30.080Z,24.70
2022-09-22T19:07:12.207Z,24.70
2022-09-22T19:09:43.226Z,24.80
2022-09-22T19:12:14.315Z,24.50
2022-09-22T19:14:44.529Z,24.50
2022-09-22T19:17:15.367Z,24.40
2022-09-22T19:19:46.416Z,24.40
2022-09-22T19:22:16.621Z,24.30
2022-09-22T19:24:48.206Z,24.30
2022-09-22T19:27:21.264Z,24.30
2022-09-22T19:29:52.757Z,24.30
2022-09-22T19:32:22.969Z,24.40
2022-09-22T19:34:55.782Z,24.40
2022-09-22T19:37:26.892Z,24.50
2022-09-22T19:39:57.727Z,24.40
2022-09-22T19:42:28.839Z,24.50
2022-09-22T19:44:59.324Z,24.50
2022-09-22T19:47:29.594Z,24.50
2022-09-22T19:50:00.920Z,24.40
2022-09-22T19:52:31.221Z,24.40
2022-09-22T19:55:01.629Z,24.30
2022-09-22T19:57:32.928Z,24.30
2022-09-22T20:00:03.383Z,24.30
2022-09-22T20:02:33.591Z,24.40
2022-09-22T20:05:03.913Z,24.40
2022-09-22T20:07:34.514Z,24.40
2022-09-22T20:10:05.028Z,24.40
2022-09-22T20:12:35.284Z,24.40
2022-09-22T20:15:05.654Z,24.40
2022-09-22T20:17:35.889Z,24.40
2022-09-22T20:20:06.529Z,24.40
2022-09-22T20:22:38.839Z,24.40
2022-09-22T20:25:09.660Z,24.30
2022-09-22T20:27:40.136Z,24.30
2022-09-22T20:30:11.286Z,24.30
2022-09-22T20:32:42.469Z,24.30
2022-09-22T20:35:17.277Z,24.30
2022-09-22T20:37:47.902Z,24.30
2022-09-22T20:40:23.302Z,24.30
2022-09-22T20:42:56.447Z,24.30
2022-09-22T20:45:27.345Z,24.30
2022-09-22T20:47:58.256Z,24.30
2022-09-22T20:50:28.706Z,24.40
2022-09-22T20:52:58.980Z,24.30
2022-09-22T20:55:29.392Z,24.30
2022-09-22T20:58:00.085Z,24.30
2022-09-22T21:00:30.389Z,24.30
2022-09-22T21:03:03.508Z,24.30
2022-09-22T21:05:33.748Z,24.30
2022-09-22T21:08:19.749Z,24.30
2022-09-22T21:10:49.965Z,24.30
2022-09-22T21:13:20.250Z,24.20
2022-09-22T21:15:50.699Z,24.20
2022-09-22T21:18:21.020Z,24.20
2022-09-22T21:20:51.379Z,24.10
2022-09-22T21:23:22.632Z,24.00
2022-09-22T21:26:04.180Z,24.00
2022-09-22T21:28:36.133Z,23.90
2022-09-22T21:31:08.778Z,23.90
2022-09-22T21:33:39.984Z,23.90
2022-09-22T21:36:16.721Z,23.80
2022-09-22T21:38:50.518Z,23.80
2022-09-22T21:41:23.351Z,23.80
2022-09-22T21:43:54.351Z,23.90
2022-09-22T21:46:27.324Z,23.90
2022-09-22T21:49:01.503Z,23.80
2022-09-22T21:51:38.589Z,23.80
2022-09-22T21:54:09.520Z,23.70
2022-09-22T21:56:39.814Z,23.70
2022-09-22T21:59:10.714Z,23.70
2022-09-22T22:01:42.804Z,23.70
2022-09-22T22:04:16.567Z,23.80
2022-09-22T22:06:48.069Z,23.80
2022-09-22T22:09:25.485Z,23.80
2022-09-22T22:12:01.394Z,23.80
2022-09-22T22:14:35.595Z,23.90
2022-09-22T22:17:07.690Z,23.90
2022-09-22T22:19:38.067Z,23.80
2022-09-22T22:22:08.620Z,23.70
2022-09-22T22:24:43.316Z,23.80
2022-09-22T22:27:15.646Z,23.80
2022-09-22T22:29:46.058Z,23.90
2022-09-22T22:32:16.365Z,23.90
2022-09-22T22:34:46.622Z,23.80
2022-09-22T22:37:17.140Z,23.80
2022-09-22T22:39:47.480Z,23.80
2022-09-22T22:42:17.733Z,23.80
2022-09-22T22:44:48.056Z,23.90
2022-09-22T22:47:19.355Z,23.90
2022-09-22T22:49:50.328Z,23.80
2022-09-22T22:52:20.598Z,23.80
2022-09-22T22:54:50.849Z,23.90
2022-09-22T22:57:21.327Z,23.90
2022-09-22T22:59:51.643Z,23.90
2022-09-22T23:02:21.891Z,23.90
2022-09-22T23:04:52.144Z,23.90
2022-09-22T23:07:22.587Z,23.90
2022-09-22T23:10:08.059Z,23.80
2022-09-22T23:12:43.139Z,23.80
2022-09-22T23:15:13.577Z,23.80
2022-09-22T23:17:43.884Z,23.70
2022-09-22T23:20:14.680Z,23.70
2022-09-22T23:22:45.677Z,23.70
2022-09-22T23:25:17.360Z,23.70
2022-09-22T23:27:51.062Z,23.70
2022-09-22T23:30:21.348Z,23.70
2022-09-22T23:32:51.982Z,23.70
2022-09-22T23:35:22.197Z,23.70
2022-09-22T23:37:53.387Z,23.70
2022-09-22T23:40:23.901Z,23.70
2022-09-22T23:42:54.461Z,23.60
2022-09-22T23:45:24.709Z,23.60
2022-09-22T23:47:55.322Z,23.60
2022-09-22T23:50:25.678Z,23.60
2022-09-22T23:52:55.917Z,23.70
2022-09-22T23:55:26.401Z,23.70
2022-09-22T23:57:56.643Z,23.70
